Terminal Aerodrome Forecast
Issued by NWS Charleston, WV

Current Version | Previous Version | Graphics & Text | Print | Product List | Glossary On
Versions: 1 2 3 4 5 6 7 8 9 10 11 12 13 14 15 16 17 18 19 20 21 22 23 24
000
FTUS41 KRLX 180300 AAA
TAFPKB
TAF AMD
KPKB 180307Z 1803/1824 27011G24KT P6SM BKN050
     FM180800 26013G24KT P6SM BKN025
     FM180900 27013G24KT P6SM SCT025=

USA.gov is the U.S. government's official web portal to all federal, state and local government web resources and services.